sensor_id;sensor_type;location;lat;lon;timestamp;P1;durP1;ratioP1;P2;durP2;ratioP2
4317;SDS011;2172;53.576;9.934;2022-12-16T00:00:39;37.83;;;27.07;;
4317;SDS011;2172;53.576;9.934;2022-12-16T00:03:06;38.03;;;26.53;;
4317;SDS011;2172;53.576;9.934;2022-12-16T00:05:35;42.87;;;28.83;;
4317;SDS011;2172;53.576;9.934;2022-12-16T00:08:02;40.53;;;26.80;;
4317;SDS011;2172;53.576;9.934;2022-12-16T00:10:29;35.03;;;26.17;;
4317;SDS011;2172;53.576;9.934;2022-12-16T00:13:17;37.40;;;25.80;;
4317;SDS011;2172;53.576;9.934;2022-12-16T00:15:44;39.57;;;26.93;;
4317;SDS011;2172;53.576;9.934;2022-12-16T00:18:12;37.37;;;26.53;;
4317;SDS011;2172;53.576;9.934;2022-12-16T00:20:44;41.30;;;28.03;;
4317;SDS011;2172;53.576;9.934;2022-12-16T00:23:11;40.20;;;26.70;;
4317;SDS011;2172;53.576;9.934;2022-12-16T00:25:40;41.30;;;27.93;;
4317;SDS011;2172;53.576;9.934;2022-12-16T00:28:07;36.80;;;26.20;;
4317;SDS011;2172;53.576;9.934;2022-12-16T00:30:34;37.40;;;26.23;;
4317;SDS011;2172;53.576;9.934;2022-12-16T00:33:02;39.43;;;26.97;;
4317;SDS011;2172;53.576;9.934;2022-12-16T00:35:29;39.57;;;27.87;;
4317;SDS011;2172;53.576;9.934;2022-12-16T00:37:58;36.80;;;27.07;;
4317;SDS011;2172;53.576;9.934;2022-12-16T00:40:25;41.20;;;27.70;;
4317;SDS011;2172;53.576;9.934;2022-12-16T00:42:53;38.30;;;24.80;;
4317;SDS011;2172;53.576;9.934;2022-12-16T00:45:20;41.97;;;27.70;;
4317;SDS011;2172;53.576;9.934;2022-12-16T00:47:47;40.83;;;28.00;;
4317;SDS011;2172;53.576;9.934;2022-12-16T00:50:15;38.07;;;28.00;;
4317;SDS011;2172;53.576;9.934;2022-12-16T00:52:42;38.33;;;26.83;;
4317;SDS011;2172;53.576;9.934;2022-12-16T00:55:11;41.43;;;27.50;;
4317;SDS011;2172;53.576;9.934;2022-12-16T00:57:39;40.80;;;27.20;;
4317;SDS011;2172;53.576;9.934;2022-12-16T01:00:06;46.60;;;29.63;;
4317;SDS011;2172;53.576;9.934;2022-12-16T01:02:37;44.73;;;28.90;;
4317;SDS011;2172;53.576;9.934;2022-12-16T01:05:05;39.77;;;27.83;;
4317;SDS011;2172;53.576;9.934;2022-12-16T01:07:33;40.43;;;29.10;;
4317;SDS011;2172;53.576;9.934;2022-12-16T01:10:00;45.13;;;28.13;;
4317;SDS011;2172;53.576;9.934;2022-12-16T01:12:29;45.10;;;28.07;;
4317;SDS011;2172;53.576;9.934;2022-12-16T01:14:56;44.23;;;26.97;;
4317;SDS011;2172;53.576;9.934;2022-12-16T01:17:23;39.17;;;26.57;;
4317;SDS011;2172;53.576;9.934;2022-12-16T01:19:51;35.30;;;27.47;;
4317;SDS011;2172;53.576;9.934;2022-12-16T01:22:18;40.57;;;26.60;;
4317;SDS011;2172;53.576;9.934;2022-12-16T01:24:45;46.83;;;28.87;;
4317;SDS011;2172;53.576;9.934;2022-12-16T01:27:13;38.63;;;27.60;;
4317;SDS011;2172;53.576;9.934;2022-12-16T01:29:41;40.63;;;27.03;;
4317;SDS011;2172;53.576;9.934;2022-12-16T01:32:10;44.60;;;27.93;;
4317;SDS011;2172;53.576;9.934;2022-12-16T01:34:38;42.47;;;27.83;;
4317;SDS011;2172;53.576;9.934;2022-12-16T01:37:05;42.47;;;28.37;;
4317;SDS011;2172;53.576;9.934;2022-12-16T01:39:32;44.30;;;27.50;;
4317;SDS011;2172;53.576;9.934;2022-12-16T01:42:00;39.67;;;27.77;;
4317;SDS011;2172;53.576;9.934;2022-12-16T01:44:27;47.53;;;28.73;;
4317;SDS011;2172;53.576;9.934;2022-12-16T01:46:57;38.90;;;28.23;;
4317;SDS011;2172;53.576;9.934;2022-12-16T01:49:26;35.90;;;27.27;;
4317;SDS011;2172;53.576;9.934;2022-12-16T01:51:56;42.57;;;27.27;;
4317;SDS011;2172;53.576;9.934;2022-12-16T01:54:25;39.50;;;26.53;;
4317;SDS011;2172;53.576;9.934;2022-12-16T01:56:54;37.53;;;26.50;;
4317;SDS011;2172;53.576;9.934;2022-12-16T01:59:23;40.03;;;28.40;;
4317;SDS011;2172;53.576;9.934;2022-12-16T02:01:51;39.57;;;26.70;;
4317;SDS011;2172;53.576;9.934;2022-12-16T02:04:20;40.30;;;25.00;;
4317;SDS011;2172;53.576;9.934;2022-12-16T02:06:47;36.53;;;26.20;;
4317;SDS011;2172;53.576;9.934;2022-12-16T02:09:15;37.70;;;26.27;;
4317;SDS011;2172;53.576;9.934;2022-12-16T02:14:41;37.00;;;26.80;;
4317;SDS011;2172;53.576;9.934;2022-12-16T02:17:16;38.93;;;25.80;;
4317;SDS011;2172;53.576;9.934;2022-12-16T02:19:56;40.10;;;25.87;;
4317;SDS011;2172;53.576;9.934;2022-12-16T02:22:34;36.90;;;25.40;;
4317;SDS011;2172;53.576;9.934;2022-12-16T02:28:01;40.57;;;26.73;;
4317;SDS011;2172;53.576;9.934;2022-12-16T02:30:34;40.77;;;26.60;;
4317;SDS011;2172;53.576;9.934;2022-12-16T02:33:07;44.67;;;27.20;;
4317;SDS011;2172;53.576;9.934;2022-12-16T02:35:38;37.67;;;26.60;;
4317;SDS011;2172;53.576;9.934;2022-12-16T02:38:10;39.20;;;26.40;;
4317;SDS011;2172;53.576;9.934;2022-12-16T02:40:41;40.40;;;27.30;;
4317;SDS011;2172;53.576;9.934;2022-12-16T02:43:11;40.13;;;27.87;;
4317;SDS011;2172;53.576;9.934;2022-12-16T02:45:40;42.30;;;28.53;;
4317;SDS011;2172;53.576;9.934;2022-12-16T02:48:08;42.70;;;28.97;;
4317;SDS011;2172;53.576;9.934;2022-12-16T02:50:37;40.00;;;27.40;;
4317;SDS011;2172;53.576;9.934;2022-12-16T02:53:06;45.80;;;26.90;;
4317;SDS011;2172;53.576;9.934;2022-12-16T02:55:35;47.13;;;31.20;;
4317;SDS011;2172;53.576;9.934;2022-12-16T02:58:07;46.10;;;30.07;;
4317;SDS011;2172;53.576;9.934;2022-12-16T03:00:40;48.73;;;30.23;;
4317;SDS011;2172;53.576;9.934;2022-12-16T03:03:13;45.03;;;31.43;;
4317;SDS011;2172;53.576;9.934;2022-12-16T03:05:45;45.00;;;29.30;;
4317;SDS011;2172;53.576;9.934;2022-12-16T03:08:14;43.77;;;28.87;;
4317;SDS011;2172;53.576;9.934;2022-12-16T03:10:44;42.50;;;27.20;;
4317;SDS011;2172;53.576;9.934;2022-12-16T03:13:12;44.87;;;30.67;;
4317;SDS011;2172;53.576;9.934;2022-12-16T03:15:42;51.43;;;33.47;;
4317;SDS011;2172;53.576;9.934;2022-12-16T03:18:09;47.20;;;32.00;;
4317;SDS011;2172;53.576;9.934;2022-12-16T03:20:39;75.93;;;45.27;;
4317;SDS011;2172;53.576;9.934;2022-12-16T03:23:09;69.63;;;44.97;;
4317;SDS011;2172;53.576;9.934;2022-12-16T03:25:37;68.97;;;42.17;;
4317;SDS011;2172;53.576;9.934;2022-12-16T03:28:09;54.37;;;36.37;;
4317;SDS011;2172;53.576;9.934;2022-12-16T03:30:39;51.87;;;31.87;;
4317;SDS011;2172;53.576;9.934;2022-12-16T03:33:09;60.80;;;38.10;;
4317;SDS011;2172;53.576;9.934;2022-12-16T03:35:42;51.43;;;35.10;;
4317;SDS011;2172;53.576;9.934;2022-12-16T03:38:10;54.00;;;33.67;;
4317;SDS011;2172;53.576;9.934;2022-12-16T03:40:39;49.20;;;30.53;;
4317;SDS011;2172;53.576;9.934;2022-12-16T03:43:07;58.83;;;34.50;;
4317;SDS011;2172;53.576;9.934;2022-12-16T03:45:37;48.57;;;31.77;;
4317;SDS011;2172;53.576;9.934;2022-12-16T03:48:06;49.80;;;31.67;;
4317;SDS011;2172;53.576;9.934;2022-12-16T03:50:36;45.10;;;30.50;;
4317;SDS011;2172;53.576;9.934;2022-12-16T03:53:03;43.97;;;29.63;;
4317;SDS011;2172;53.576;9.934;2022-12-16T03:55:31;46.30;;;31.10;;
4317;SDS011;2172;53.576;9.934;2022-12-16T03:57:58;41.63;;;29.20;;
4317;SDS011;2172;53.576;9.934;2022-12-16T04:00:25;50.13;;;31.93;;
4317;SDS011;2172;53.576;9.934;2022-12-16T04:02:53;48.53;;;31.87;;
4317;SDS011;2172;53.576;9.934;2022-12-16T04:05:20;58.83;;;30.53;;
4317;SDS011;2172;53.576;9.934;2022-12-16T04:07:49;45.00;;;31.73;;
4317;SDS011;2172;53.576;9.934;2022-12-16T04:10:17;48.13;;;29.30;;
4317;SDS011;2172;53.576;9.934;2022-12-16T04:13:06;41.60;;;27.50;;
4317;SDS011;2172;53.576;9.934;2022-12-16T04:15:51;54.03;;;29.20;;
4317;SDS011;2172;53.576;9.934;2022-12-16T04:18:37;41.13;;;27.40;;
4317;SDS011;2172;53.576;9.934;2022-12-16T04:21:22;46.90;;;28.40;;
4317;SDS011;2172;53.576;9.934;2022-12-16T04:24:08;44.33;;;28.43;;
4317;SDS011;2172;53.576;9.934;2022-12-16T04:26:46;45.47;;;28.67;;
4317;SDS011;2172;53.576;9.934;2022-12-16T04:29:32;41.10;;;26.10;;
4317;SDS011;2172;53.576;9.934;2022-12-16T04:32:19;43.33;;;27.87;;
4317;SDS011;2172;53.576;9.934;2022-12-16T04:34:46;46.93;;;28.37;;
4317;SDS011;2172;53.576;9.934;2022-12-16T04:37:13;40.80;;;25.70;;
4317;SDS011;2172;53.576;9.934;2022-12-16T04:39:59;41.37;;;27.20;;
4317;SDS011;2172;53.576;9.934;2022-12-16T04:42:44;36.80;;;26.30;;
4317;SDS011;2172;53.576;9.934;2022-12-16T04:45:29;52.83;;;29.40;;
4317;SDS011;2172;53.576;9.934;2022-12-16T04:48:14;44.97;;;28.67;;
4317;SDS011;2172;53.576;9.934;2022-12-16T04:50:59;45.23;;;27.17;;
4317;SDS011;2172;53.576;9.934;2022-12-16T04:53:44;44.97;;;27.50;;
4317;SDS011;2172;53.576;9.934;2022-12-16T04:56:31;42.40;;;28.03;;
4317;SDS011;2172;53.576;9.934;2022-12-16T04:59:16;50.60;;;28.63;;
4317;SDS011;2172;53.576;9.934;2022-12-16T05:02:00;45.03;;;29.00;;
4317;SDS011;2172;53.576;9.934;2022-12-16T05:04:45;41.77;;;27.03;;
4317;SDS011;2172;53.576;9.934;2022-12-16T05:07:30;44.83;;;28.70;;
4317;SDS011;2172;53.576;9.934;2022-12-16T05:10:15;40.40;;;27.10;;
4317;SDS011;2172;53.576;9.934;2022-12-16T05:13:01;42.00;;;27.07;;
4317;SDS011;2172;53.576;9.934;2022-12-16T05:15:46;39.63;;;27.53;;
4317;SDS011;2172;53.576;9.934;2022-12-16T05:18:31;42.93;;;26.10;;
4317;SDS011;2172;53.576;9.934;2022-12-16T05:21:16;40.47;;;25.97;;
4317;SDS011;2172;53.576;9.934;2022-12-16T05:24:01;44.60;;;28.33;;
4317;SDS011;2172;53.576;9.934;2022-12-16T05:26:46;39.20;;;25.77;;
4317;SDS011;2172;53.576;9.934;2022-12-16T05:29:33;40.97;;;26.10;;
4317;SDS011;2172;53.576;9.934;2022-12-16T05:32:18;43.37;;;26.57;;
4317;SDS011;2172;53.576;9.934;2022-12-16T05:35:03;46.27;;;25.63;;
4317;SDS011;2172;53.576;9.934;2022-12-16T05:37:48;42.97;;;28.00;;
4317;SDS011;2172;53.576;9.934;2022-12-16T05:40:33;40.43;;;26.93;;
4317;SDS011;2172;53.576;9.934;2022-12-16T05:43:18;42.03;;;26.10;;
4317;SDS011;2172;53.576;9.934;2022-12-16T05:46:05;45.50;;;29.37;;
4317;SDS011;2172;53.576;9.934;2022-12-16T05:48:50;40.97;;;24.57;;
4317;SDS011;2172;53.576;9.934;2022-12-16T05:51:35;43.87;;;26.90;;
4317;SDS011;2172;53.576;9.934;2022-12-16T05:54:21;47.57;;;26.67;;
4317;SDS011;2172;53.576;9.934;2022-12-16T05:57:05;41.47;;;27.13;;
4317;SDS011;2172;53.576;9.934;2022-12-16T05:59:50;42.37;;;25.13;;
4317;SDS011;2172;53.576;9.934;2022-12-16T06:02:40;45.57;;;29.40;;
4317;SDS011;2172;53.576;9.934;2022-12-16T06:05:25;52.63;;;32.17;;
4317;SDS011;2172;53.576;9.934;2022-12-16T06:08:10;43.33;;;28.87;;
4317;SDS011;2172;53.576;9.934;2022-12-16T06:10:55;61.33;;;38.83;;
4317;SDS011;2172;53.576;9.934;2022-12-16T06:13:40;59.17;;;37.10;;
4317;SDS011;2172;53.576;9.934;2022-12-16T06:16:33;49.97;;;31.40;;
4317;SDS011;2172;53.576;9.934;2022-12-16T06:19:20;49.70;;;31.17;;
4317;SDS011;2172;53.576;9.934;2022-12-16T06:22:05;49.83;;;31.13;;
4317;SDS011;2172;53.576;9.934;2022-12-16T06:24:50;50.57;;;30.57;;
4317;SDS011;2172;53.576;9.934;2022-12-16T06:27:35;43.90;;;29.90;;
4317;SDS011;2172;53.576;9.934;2022-12-16T06:30:20;46.63;;;29.70;;
4317;SDS011;2172;53.576;9.934;2022-12-16T06:33:05;48.27;;;31.73;;
4317;SDS011;2172;53.576;9.934;2022-12-16T06:35:51;44.50;;;30.50;;
4317;SDS011;2172;53.576;9.934;2022-12-16T06:38:36;44.70;;;28.30;;
4317;SDS011;2172;53.576;9.934;2022-12-16T06:41:21;46.37;;;29.87;;
4317;SDS011;2172;53.576;9.934;2022-12-16T06:44:06;48.77;;;29.90;;
4317;SDS011;2172;53.576;9.934;2022-12-16T06:46:51;45.80;;;28.00;;
4317;SDS011;2172;53.576;9.934;2022-12-16T06:49:37;45.17;;;28.90;;
4317;SDS011;2172;53.576;9.934;2022-12-16T06:52:23;48.30;;;29.83;;
4317;SDS011;2172;53.576;9.934;2022-12-16T06:55:08;42.33;;;27.07;;
4317;SDS011;2172;53.576;9.934;2022-12-16T06:57:55;46.40;;;30.17;;
4317;SDS011;2172;53.576;9.934;2022-12-16T07:00:40;48.17;;;29.83;;
4317;SDS011;2172;53.576;9.934;2022-12-16T07:03:26;44.90;;;27.20;;
4317;SDS011;2172;53.576;9.934;2022-12-16T07:06:11;47.33;;;29.47;;
4317;SDS011;2172;53.576;9.934;2022-12-16T07:09:06;45.53;;;29.13;;
4317;SDS011;2172;53.576;9.934;2022-12-16T07:11:51;47.63;;;29.20;;
4317;SDS011;2172;53.576;9.934;2022-12-16T07:14:36;48.07;;;29.87;;
4317;SDS011;2172;53.576;9.934;2022-12-16T07:17:21;50.03;;;29.43;;
4317;SDS011;2172;53.576;9.934;2022-12-16T07:20:07;45.33;;;29.13;;
4317;SDS011;2172;53.576;9.934;2022-12-16T07:22:52;50.20;;;29.57;;
4317;SDS011;2172;53.576;9.934;2022-12-16T07:25:47;49.00;;;30.13;;
4317;SDS011;2172;53.576;9.934;2022-12-16T07:28:32;44.83;;;31.40;;
4317;SDS011;2172;53.576;9.934;2022-12-16T07:31:18;51.40;;;31.20;;
4317;SDS011;2172;53.576;9.934;2022-12-16T07:34:03;49.47;;;30.03;;
4317;SDS011;2172;53.576;9.934;2022-12-16T07:36:48;56.43;;;32.87;;
4317;SDS011;2172;53.576;9.934;2022-12-16T07:39:33;50.57;;;31.57;;
4317;SDS011;2172;53.576;9.934;2022-12-16T07:42:19;56.17;;;30.67;;
4317;SDS011;2172;53.576;9.934;2022-12-16T07:45:04;55.63;;;32.50;;
4317;SDS011;2172;53.576;9.934;2022-12-16T07:47:50;49.30;;;30.57;;
4317;SDS011;2172;53.576;9.934;2022-12-16T07:50:35;51.60;;;32.47;;
4317;SDS011;2172;53.576;9.934;2022-12-16T07:53:20;49.97;;;31.70;;
4317;SDS011;2172;53.576;9.934;2022-12-16T07:56:05;53.23;;;31.67;;
4317;SDS011;2172;53.576;9.934;2022-12-16T07:58:52;56.40;;;31.00;;
4317;SDS011;2172;53.576;9.934;2022-12-16T08:01:37;50.23;;;32.83;;
4317;SDS011;2172;53.576;9.934;2022-12-16T08:04:22;56.60;;;34.40;;
4317;SDS011;2172;53.576;9.934;2022-12-16T08:07:07;53.10;;;31.30;;
4317;SDS011;2172;53.576;9.934;2022-12-16T08:09:52;46.20;;;30.57;;
4317;SDS011;2172;53.576;9.934;2022-12-16T08:12:37;52.67;;;33.20;;
4317;SDS011;2172;53.576;9.934;2022-12-16T08:15:23;51.30;;;31.43;;
4317;SDS011;2172;53.576;9.934;2022-12-16T08:18:09;50.47;;;31.90;;
4317;SDS011;2172;53.576;9.934;2022-12-16T08:20:54;49.77;;;31.47;;
4317;SDS011;2172;53.576;9.934;2022-12-16T08:23:39;53.37;;;32.23;;
4317;SDS011;2172;53.576;9.934;2022-12-16T08:26:24;51.70;;;33.40;;
4317;SDS011;2172;53.576;9.934;2022-12-16T08:29:09;49.43;;;31.73;;
4317;SDS011;2172;53.576;9.934;2022-12-16T08:31:56;45.87;;;29.80;;
4317;SDS011;2172;53.576;9.934;2022-12-16T08:34:41;55.83;;;34.13;;
4317;SDS011;2172;53.576;9.934;2022-12-16T08:37:26;55.87;;;32.83;;
4317;SDS011;2172;53.576;9.934;2022-12-16T08:40:11;53.07;;;32.17;;
4317;SDS011;2172;53.576;9.934;2022-12-16T08:42:56;57.60;;;32.80;;
4317;SDS011;2172;53.576;9.934;2022-12-16T08:45:41;49.30;;;31.90;;
4317;SDS011;2172;53.576;9.934;2022-12-16T08:48:27;45.90;;;31.40;;
4317;SDS011;2172;53.576;9.934;2022-12-16T08:51:12;44.73;;;31.57;;
4317;SDS011;2172;53.576;9.934;2022-12-16T08:53:57;51.27;;;31.73;;
4317;SDS011;2172;53.576;9.934;2022-12-16T08:56:42;54.27;;;34.07;;
4317;SDS011;2172;53.576;9.934;2022-12-16T08:59:39;50.37;;;33.60;;
4317;SDS011;2172;53.576;9.934;2022-12-16T09:02:24;52.70;;;32.60;;
4317;SDS011;2172;53.576;9.934;2022-12-16T09:05:10;53.93;;;32.30;;
4317;SDS011;2172;53.576;9.934;2022-12-16T09:07:57;53.43;;;34.63;;
4317;SDS011;2172;53.576;9.934;2022-12-16T09:10:42;53.23;;;33.87;;
4317;SDS011;2172;53.576;9.934;2022-12-16T09:13:27;51.43;;;33.03;;
4317;SDS011;2172;53.576;9.934;2022-12-16T09:16:12;51.87;;;31.67;;
4317;SDS011;2172;53.576;9.934;2022-12-16T09:18:57;52.80;;;33.90;;
4317;SDS011;2172;53.576;9.934;2022-12-16T09:21:43;52.20;;;33.60;;
4317;SDS011;2172;53.576;9.934;2022-12-16T09:24:28;49.23;;;31.67;;
4317;SDS011;2172;53.576;9.934;2022-12-16T09:27:13;47.37;;;30.90;;
4317;SDS011;2172;53.576;9.934;2022-12-16T09:29:58;53.40;;;34.30;;
4317;SDS011;2172;53.576;9.934;2022-12-16T09:32:44;50.40;;;31.53;;
4317;SDS011;2172;53.576;9.934;2022-12-16T09:35:29;45.43;;;31.00;;
4317;SDS011;2172;53.576;9.934;2022-12-16T09:38:15;49.93;;;33.03;;
4317;SDS011;2172;53.576;9.934;2022-12-16T09:41:08;58.53;;;34.90;;
4317;SDS011;2172;53.576;9.934;2022-12-16T09:44:03;54.30;;;33.50;;
4317;SDS011;2172;53.576;9.934;2022-12-16T09:46:54;52.87;;;33.00;;
4317;SDS011;2172;53.576;9.934;2022-12-16T09:49:42;50.80;;;32.37;;
4317;SDS011;2172;53.576;9.934;2022-12-16T09:52:29;51.03;;;31.50;;
4317;SDS011;2172;53.576;9.934;2022-12-16T09:55:21;57.97;;;35.10;;
4317;SDS011;2172;53.576;9.934;2022-12-16T09:58:07;48.13;;;32.83;;
4317;SDS011;2172;53.576;9.934;2022-12-16T10:00:54;47.23;;;31.00;;
4317;SDS011;2172;53.576;9.934;2022-12-16T10:03:39;49.70;;;33.03;;
4317;SDS011;2172;53.576;9.934;2022-12-16T10:06:29;52.07;;;32.97;;
4317;SDS011;2172;53.576;9.934;2022-12-16T10:09:16;51.43;;;34.50;;
4317;SDS011;2172;53.576;9.934;2022-12-16T10:12:07;49.53;;;32.57;;
4317;SDS011;2172;53.576;9.934;2022-12-16T10:14:54;48.20;;;30.50;;
4317;SDS011;2172;53.576;9.934;2022-12-16T10:17:43;50.73;;;33.13;;
4317;SDS011;2172;53.576;9.934;2022-12-16T10:20:31;48.57;;;33.67;;
4317;SDS011;2172;53.576;9.934;2022-12-16T10:23:19;49.23;;;32.90;;
4317;SDS011;2172;53.576;9.934;2022-12-16T10:26:07;52.80;;;33.70;;
4317;SDS011;2172;53.576;9.934;2022-12-16T10:29:01;48.97;;;31.80;;
4317;SDS011;2172;53.576;9.934;2022-12-16T10:31:48;49.20;;;33.03;;
4317;SDS011;2172;53.576;9.934;2022-12-16T10:34:34;52.13;;;34.20;;
4317;SDS011;2172;53.576;9.934;2022-12-16T10:37:21;54.57;;;32.30;;
4317;SDS011;2172;53.576;9.934;2022-12-16T10:40:11;48.70;;;32.50;;
4317;SDS011;2172;53.576;9.934;2022-12-16T10:42:58;52.00;;;33.27;;
4317;SDS011;2172;53.576;9.934;2022-12-16T10:45:48;58.80;;;35.43;;
4317;SDS011;2172;53.576;9.934;2022-12-16T10:48:33;48.90;;;33.30;;
4317;SDS011;2172;53.576;9.934;2022-12-16T10:51:20;55.07;;;34.10;;
4317;SDS011;2172;53.576;9.934;2022-12-16T10:54:11;56.23;;;32.80;;
4317;SDS011;2172;53.576;9.934;2022-12-16T10:57:05;51.27;;;32.93;;
4317;SDS011;2172;53.576;9.934;2022-12-16T10:59:53;49.30;;;32.23;;
4317;SDS011;2172;53.576;9.934;2022-12-16T11:02:52;49.27;;;32.90;;
4317;SDS011;2172;53.576;9.934;2022-12-16T11:05:37;49.30;;;32.50;;
4317;SDS011;2172;53.576;9.934;2022-12-16T11:08:24;51.10;;;33.17;;
4317;SDS011;2172;53.576;9.934;2022-12-16T11:11:13;53.57;;;34.00;;
4317;SDS011;2172;53.576;9.934;2022-12-16T11:14:18;53.97;;;33.20;;
4317;SDS011;2172;53.576;9.934;2022-12-16T11:17:17;52.17;;;33.57;;
4317;SDS011;2172;53.576;9.934;2022-12-16T11:20:10;49.83;;;33.83;;
4317;SDS011;2172;53.576;9.934;2022-12-16T11:23:12;54.10;;;33.70;;
4317;SDS011;2172;53.576;9.934;2022-12-16T11:26:08;54.13;;;36.07;;
4317;SDS011;2172;53.576;9.934;2022-12-16T11:29:00;56.57;;;35.40;;
4317;SDS011;2172;53.576;9.934;2022-12-16T11:31:47;49.40;;;33.73;;
4317;SDS011;2172;53.576;9.934;2022-12-16T11:34:32;59.13;;;35.37;;
4317;SDS011;2172;53.576;9.934;2022-12-16T11:37:19;52.83;;;35.10;;
4317;SDS011;2172;53.576;9.934;2022-12-16T11:40:09;53.97;;;35.07;;
4317;SDS011;2172;53.576;9.934;2022-12-16T11:42:56;57.00;;;35.70;;
4317;SDS011;2172;53.576;9.934;2022-12-16T11:45:41;55.33;;;34.93;;
4317;SDS011;2172;53.576;9.934;2022-12-16T11:48:28;51.13;;;34.00;;
4317;SDS011;2172;53.576;9.934;2022-12-16T11:51:15;55.63;;;36.40;;
4317;SDS011;2172;53.576;9.934;2022-12-16T11:54:04;58.70;;;35.70;;
4317;SDS011;2172;53.576;9.934;2022-12-16T11:56:51;66.87;;;42.57;;
4317;SDS011;2172;53.576;9.934;2022-12-16T11:59:38;64.07;;;40.57;;
4317;SDS011;2172;53.576;9.934;2022-12-16T12:02:27;61.47;;;40.17;;
4317;SDS011;2172;53.576;9.934;2022-12-16T12:05:14;57.93;;;35.90;;
4317;SDS011;2172;53.576;9.934;2022-12-16T12:08:00;58.37;;;37.77;;
4317;SDS011;2172;53.576;9.934;2022-12-16T12:10:53;61.83;;;39.80;;
4317;SDS011;2172;53.576;9.934;2022-12-16T12:13:45;54.73;;;36.17;;
4317;SDS011;2172;53.576;9.934;2022-12-16T12:16:37;60.20;;;36.37;;
4317;SDS011;2172;53.576;9.934;2022-12-16T12:19:28;58.97;;;36.23;;
4317;SDS011;2172;53.576;9.934;2022-12-16T12:22:19;61.53;;;36.40;;
4317;SDS011;2172;53.576;9.934;2022-12-16T12:25:14;58.87;;;38.37;;
4317;SDS011;2172;53.576;9.934;2022-12-16T12:28:06;64.63;;;43.67;;
4317;SDS011;2172;53.576;9.934;2022-12-16T12:30:54;64.20;;;38.97;;
4317;SDS011;2172;53.576;9.934;2022-12-16T12:33:45;55.80;;;36.43;;
4317;SDS011;2172;53.576;9.934;2022-12-16T12:36:33;60.33;;;36.83;;
4317;SDS011;2172;53.576;9.934;2022-12-16T12:39:21;60.70;;;37.13;;
4317;SDS011;2172;53.576;9.934;2022-12-16T12:42:17;63.00;;;41.17;;
4317;SDS011;2172;53.576;9.934;2022-12-16T12:45:22;67.20;;;37.37;;
4317;SDS011;2172;53.576;9.934;2022-12-16T12:48:11;61.13;;;36.87;;
4317;SDS011;2172;53.576;9.934;2022-12-16T12:50:59;60.50;;;38.57;;
4317;SDS011;2172;53.576;9.934;2022-12-16T12:53:49;62.03;;;40.27;;
4317;SDS011;2172;53.576;9.934;2022-12-16T12:56:39;66.67;;;46.40;;
4317;SDS011;2172;53.576;9.934;2022-12-16T12:59:26;64.90;;;41.17;;
4317;SDS011;2172;53.576;9.934;2022-12-16T13:02:16;66.73;;;39.33;;
4317;SDS011;2172;53.576;9.934;2022-12-16T13:05:02;60.67;;;39.10;;
4317;SDS011;2172;53.576;9.934;2022-12-16T13:07:47;66.33;;;40.20;;
4317;SDS011;2172;53.576;9.934;2022-12-16T13:10:34;67.53;;;37.93;;
4317;SDS011;2172;53.576;9.934;2022-12-16T13:13:25;57.57;;;36.47;;
4317;SDS011;2172;53.576;9.934;2022-12-16T13:16:54;58.47;;;37.30;;
4317;SDS011;2172;53.576;9.934;2022-12-16T13:19:40;50.20;;;35.27;;
4317;SDS011;2172;53.576;9.934;2022-12-16T13:22:26;54.20;;;35.20;;
4317;SDS011;2172;53.576;9.934;2022-12-16T13:25:25;57.40;;;36.43;;
4317;SDS011;2172;53.576;9.934;2022-12-16T13:28:19;56.07;;;36.10;;
4317;SDS011;2172;53.576;9.934;2022-12-16T13:31:04;58.90;;;36.33;;
4317;SDS011;2172;53.576;9.934;2022-12-16T13:33:50;52.50;;;37.93;;
4317;SDS011;2172;53.576;9.934;2022-12-16T13:36:36;57.77;;;36.50;;
4317;SDS011;2172;53.576;9.934;2022-12-16T13:39:23;62.53;;;38.67;;
4317;SDS011;2172;53.576;9.934;2022-12-16T13:45:15;56.70;;;36.70;;
4317;SDS011;2172;53.576;9.934;2022-12-16T13:48:02;59.90;;;39.23;;
4317;SDS011;2172;53.576;9.934;2022-12-16T13:50:48;58.83;;;38.13;;
4317;SDS011;2172;53.576;9.934;2022-12-16T13:53:37;55.57;;;37.60;;
4317;SDS011;2172;53.576;9.934;2022-12-16T13:56:24;64.13;;;39.67;;
4317;SDS011;2172;53.576;9.934;2022-12-16T13:59:13;66.30;;;40.70;;
4317;SDS011;2172;53.576;9.934;2022-12-16T14:02:12;68.43;;;40.23;;
4317;SDS011;2172;53.576;9.934;2022-12-16T14:04:59;58.83;;;38.93;;
4317;SDS011;2172;53.576;9.934;2022-12-16T14:07:44;67.03;;;40.50;;
4317;SDS011;2172;53.576;9.934;2022-12-16T14:10:44;61.20;;;39.87;;
4317;SDS011;2172;53.576;9.934;2022-12-16T14:13:38;59.93;;;37.60;;
4317;SDS011;2172;53.576;9.934;2022-12-16T14:16:24;65.30;;;37.47;;
4317;SDS011;2172;53.576;9.934;2022-12-16T14:19:16;56.60;;;39.17;;
4317;SDS011;2172;53.576;9.934;2022-12-16T14:22:07;62.93;;;38.93;;
4317;SDS011;2172;53.576;9.934;2022-12-16T14:25:00;64.07;;;40.57;;
4317;SDS011;2172;53.576;9.934;2022-12-16T14:27:46;69.43;;;41.40;;
4317;SDS011;2172;53.576;9.934;2022-12-16T14:30:31;88.53;;;49.17;;
4317;SDS011;2172;53.576;9.934;2022-12-16T14:33:21;84.93;;;50.20;;
4317;SDS011;2172;53.576;9.934;2022-12-16T14:36:19;96.10;;;54.60;;
4317;SDS011;2172;53.576;9.934;2022-12-16T14:39:08;85.27;;;47.50;;
4317;SDS011;2172;53.576;9.934;2022-12-16T14:41:53;85.57;;;48.43;;
4317;SDS011;2172;53.576;9.934;2022-12-16T14:44:39;108.40;;;55.03;;
4317;SDS011;2172;53.576;9.934;2022-12-16T14:47:24;106.57;;;53.13;;
4317;SDS011;2172;53.576;9.934;2022-12-16T14:50:17;79.00;;;47.73;;
4317;SDS011;2172;53.576;9.934;2022-12-16T14:53:12;63.20;;;43.27;;
4317;SDS011;2172;53.576;9.934;2022-12-16T14:56:08;75.20;;;44.77;;
4317;SDS011;2172;53.576;9.934;2022-12-16T14:59:05;82.30;;;47.87;;
4317;SDS011;2172;53.576;9.934;2022-12-16T15:01:51;99.47;;;51.53;;
4317;SDS011;2172;53.576;9.934;2022-12-16T15:04:38;73.13;;;44.73;;
4317;SDS011;2172;53.576;9.934;2022-12-16T15:07:23;69.67;;;43.93;;
4317;SDS011;2172;53.576;9.934;2022-12-16T15:10:11;75.30;;;46.37;;
4317;SDS011;2172;53.576;9.934;2022-12-16T15:12:57;76.83;;;46.93;;
4317;SDS011;2172;53.576;9.934;2022-12-16T15:15:53;87.27;;;48.00;;
4317;SDS011;2172;53.576;9.934;2022-12-16T15:18:40;78.63;;;46.20;;
4317;SDS011;2172;53.576;9.934;2022-12-16T15:21:26;83.43;;;47.40;;
4317;SDS011;2172;53.576;9.934;2022-12-16T15:24:14;85.10;;;47.77;;
4317;SDS011;2172;53.576;9.934;2022-12-16T15:27:12;94.43;;;48.80;;
4317;SDS011;2172;53.576;9.934;2022-12-16T15:29:57;85.83;;;48.33;;
4317;SDS011;2172;53.576;9.934;2022-12-16T15:32:50;69.23;;;45.70;;
4317;SDS011;2172;53.576;9.934;2022-12-16T15:35:37;71.40;;;44.57;;
4317;SDS011;2172;53.576;9.934;2022-12-16T15:38:26;82.67;;;46.50;;
4317;SDS011;2172;53.576;9.934;2022-12-16T15:41:21;72.53;;;46.77;;
4317;SDS011;2172;53.576;9.934;2022-12-16T15:44:16;80.90;;;50.37;;
4317;SDS011;2172;53.576;9.934;2022-12-16T15:47:02;75.13;;;48.57;;
4317;SDS011;2172;53.576;9.934;2022-12-16T15:49:55;70.10;;;47.93;;
4317;SDS011;2172;53.576;9.934;2022-12-16T15:52:42;81.67;;;50.13;;
4317;SDS011;2172;53.576;9.934;2022-12-16T15:55:28;75.13;;;49.70;;
4317;SDS011;2172;53.576;9.934;2022-12-16T15:58:15;84.50;;;54.97;;
4317;SDS011;2172;53.576;9.934;2022-12-16T16:01:03;80.37;;;51.70;;
4317;SDS011;2172;53.576;9.934;2022-12-16T16:03:50;77.73;;;50.27;;
4317;SDS011;2172;53.576;9.934;2022-12-16T16:06:35;82.53;;;50.53;;
4317;SDS011;2172;53.576;9.934;2022-12-16T16:09:22;75.70;;;46.73;;
4317;SDS011;2172;53.576;9.934;2022-12-16T16:12:08;75.73;;;50.63;;
4317;SDS011;2172;53.576;9.934;2022-12-16T16:14:53;81.77;;;50.10;;
4317;SDS011;2172;53.576;9.934;2022-12-16T16:17:38;78.33;;;48.03;;
4317;SDS011;2172;53.576;9.934;2022-12-16T16:20:23;77.23;;;51.37;;
4317;SDS011;2172;53.576;9.934;2022-12-16T16:23:08;89.40;;;51.73;;
4317;SDS011;2172;53.576;9.934;2022-12-16T16:25:55;80.23;;;49.60;;
4317;SDS011;2172;53.576;9.934;2022-12-16T16:28:40;91.60;;;53.13;;